Latest Weather Observations for East Sale

IDV60801

Issued at 6:32 pm EDT Tuesday 28 March 2017 (issued every 30 minutes, with the page automatically refreshed every 10 minutes)

About weather observations | Map of weather stations | Latest weather observations for VIC | Other Formats
Station Details ID: 085072 Name: EAST SALE AIRPORT Lat: -38.12 Lon: 147.13 Height: 4.6 m
Data from the previous 72 hours. | See also: Recent months at East Sale
Date/Time
EDT
Temp
°C
App
Temp
°C
Dew
Point
°C
Rel
Hum
%
Delta-T
°C
Wind Press
QNH
hPa
Press
MSL
hPa
Rain since
9am
mm
Dir  Spd
km/h
Gust
km/h
Spd
kts
Gust
kts
28/06:00pm 19.4 15.8 11.9 62 4.2 SE 22 26 12 14 1012.0 1012.0 0.0
28/05:30pm 20.2 16.8 12.4 61 4.4 ESE 22 30 12 16 1011.8 1011.8 0.0
28/05:00pm 20.9 17.4 12.1 57 4.9 ESE 22 28 12 15 1011.6 1011.6 0.0
28/04:30pm 21.9 20.9 12.2 54 5.5 SSW 9 15 5 8 1011.4 1011.4 0.0
28/04:00pm 23.9 21.8 9.9 41 7.7 SW 11 17 6 9 1011.3 1011.3 0.0
28/03:30pm 23.8 22.9 10.5 43 7.4 WNW 6 11 3 6 1011.6 1011.6 0.0
28/03:00pm 23.1 21.6 11.8 49 6.4 SSE 11 15 6 8 1011.9 1011.9 0.0
28/02:30pm 22.0 20.9 10.5 48 6.3 SW 7 11 4 6 1012.1 1012.1 0.0
28/02:00pm 22.0 21.1 10.5 48 6.3 NNW 6 11 3 6 1012.5 1012.5 0.0
28/01:30pm 21.9 20.9 12.2 54 5.5 NW 9 17 5 9 1013.0 1013.0 0.0
28/01:00pm 21.1 18.5 10.6 51 5.7 NW 15 22 8 12 1013.6 1013.6 0.0
28/12:30pm 20.8 18.3 11.2 54 5.3 WNW 15 24 8 13 1014.0 1014.0 0.0
28/12:00pm 19.6 16.2 11.4 59 4.5 W 20 28 11 15 1014.4 1014.4 0.0
28/11:30am 19.9 15.9 13.1 65 3.9 W 26 33 14 18 1014.6 1014.6 0.0
28/11:00am 18.3 14.7 11.8 66 3.6 W 22 35 12 19 1014.8 1014.8 0.0
28/10:30am 17.2 14.6 12.1 72 2.8 W 17 26 9 14 1014.9 1014.9 0.0
28/10:00am 16.5 14.5 12.7 78 2.1 WNW 15 22 8 12 1014.9 1014.9 0.0
28/09:30am 14.2 13.4 11.7 85 1.3 NW 7 13 4 7 1014.9 1014.9 0.0
28/09:00am 12.1 11.0 10.7 91 0.7 NW 7 9 4 5 1014.7 1014.7 6.4
28/08:30am 10.8 9.5 10.0 95 0.4 NNW 7 9 4 5 1014.5 1014.5 6.4
28/08:00am 9.3 6.9 8.5 95 0.4 NNW 11 15 6 8 1014.3 1014.3 6.4
28/07:30am 8.9 6.7 8.0 94 0.4 NW 9 11 5 6 1014.2 1014.2 6.4
28/07:00am 9.0 6.8 7.9 93 0.5 WNW 9 9 5 5 1013.8 1013.8 6.4
28/06:30am 9.0 6.9 8.1 94 0.4 W 9 11 5 6 1013.6 1013.6 6.4
28/06:00am 9.7 7.3 8.8 94 0.4 WNW 11 15 6 8 1013.3 1013.3 6.4
28/05:30am 10.0 8.1 8.9 93 0.5 WNW 9 9 5 5 1013.1 1013.1 6.4
28/05:00am 9.5 7.0 8.4 93 0.5 NW 11 15 6 8 1013.2 1013.2 6.4
28/04:30am 10.6 8.1 9.8 95 0.4 NNW 13 13 7 7 1013.1 1013.1 6.4
28/04:00am 9.3 6.1 8.5 95 0.4 NW 15 17 8 9 1013.1 1013.1 6.4
28/03:30am 9.1 8.7 8.2 94 0.4 CALM 0 0 0 0 1013.1 1013.1 6.4
28/03:00am 9.7 9.5 8.9 95 0.4 CALM 0 0 0 0 1013.4 1013.4 6.4
28/02:30am 9.1 7.5 8.2 94 0.4 N 6 7 3 4 1013.6 1013.6 6.4
28/02:00am 9.4 7.7 8.5 94 0.4 N 7 9 4 5 1013.9 1013.9 6.4
28/01:30am 10.0 8.5 9.1 94 0.4 NNE 7 9 4 5 1013.9 1013.9 6.4
28/01:00am 10.2 10.0 9.0 92 0.6 CALM 0 0 0 0 1013.9 1013.9 6.4
28/12:30am 10.8 10.0 9.6 92 0.6 WNW 4 6 2 3 1013.8 1013.8 6.4
28/12:00am 10.9 9.2 9.7 92 0.6 NW 9 11 5 6 1013.6 1013.6 6.4
 
Date/Time
EDT
Temp
°C
App
Temp
°C
Dew
Point
°C
Rel
Hum
%
Delta-T
°C
Wind Press
QNH
hPa
Press
MSL
hPa
Rain since
9am
mm
Dir  Spd
km/h
Gust
km/h
Spd
kts
Gust
kts
27/11:30pm 10.7 9.4 9.3 91 0.7 NNW 6 7 3 4 1013.6 1013.6 6.4
27/11:00pm 11.3 9.6 9.9 91 0.7 N 9 9 5 5 1013.5 1013.5 6.4
27/10:30pm 12.2 11.1 10.6 90 0.8 NW 7 9 4 5 1013.7 1013.7 6.4
27/10:00pm 11.8 9.8 10.0 89 0.9 WNW 11 17 6 9 1013.4 1013.4 6.4
27/09:30pm 12.5 10.9 10.2 86 1.2 WSW 9 13 5 7 1013.3 1013.3 6.4
27/09:00pm 12.7 12.9 10.4 86 1.2 CALM 0 6 0 3 1013.2 1013.2 6.4
27/08:30pm 13.3 12.3 10.3 82 1.6 W 6 11 3 6 1012.8 1012.8 6.4
27/08:00pm 14.5 12.2 10.5 77 2.1 WSW 13 24 7 13 1012.6 1012.6 6.4
27/07:30pm 15.0 12.0 10.6 75 2.3 W 17 30 9 16 1012.2 1012.2 6.4
27/07:00pm 15.7 12.7 12.1 79 2.0 SW 19 32 10 17 1012.2 1012.2 6.4
27/06:30pm 15.6 11.8 12.4 81 1.8 WSW 24 39 13 21 1011.3 1011.3 6.4
27/06:00pm 16.3 10.6 13.0 81 1.8 WSW 35 57 19 31 1010.8 1010.8 6.2
27/05:30pm 16.1 10.2 14.6 91 0.9 WSW 39 59 21 32 1009.3 1009.3 6.0
27/05:00pm 16.7 11.1 14.5 87 1.3 WSW 37 54 20 29 1008.2 1008.2 2.0
27/04:52pm 16.8 10.8 14.3 85 1.4 WSW 39 65 21 35 1008.3 1008.3 1.0
27/04:39pm 16.9 10.1 14.2 84 1.5 WSW 43 61 23 33 1006.8 1006.8 0.2
27/04:30pm 17.3 8.6 13.6 79 2.1 WSW 52 76 28 41 1007.1 1007.1 0.2
27/04:17pm 18.9 9.2 12.9 68 3.4 WSW 56 80 30 43 1007.7 1007.7 0.0
27/04:00pm 23.4 16.0 15.2 60 4.9 WSW 48 65 26 35 1005.7 1005.7 0.0
27/03:47pm 25.9 18.9 16.2 55 6.0 WSW 48 69 26 37 1005.1 1005.1 0.0
27/03:30pm 30.7 25.3 15.9 40 9.2 W 39 59 21 32 1003.0 1003.0 0.0
27/03:20pm 32.3 27.2 14.9 35 10.7 WNW 35 59 19 32 1002.3 1002.3 0.0
27/03:00pm 34.9 31.1 14.7 29 12.6 WNW 28 39 15 21 1002.2 1002.2 0.0
27/02:53pm 36.2 31.3 14.2 26 13.6 NW 33 52 18 28 1001.9 1001.9 0.0
27/02:30pm 35.5 29.8 14.2 28 13.1 NW 37 54 20 29 1001.3 1001.3 0.0
27/02:00pm 36.1 29.6 14.1 26 13.6 NW 41 54 22 29 1002.2 1002.2 0.0
27/01:51pm 36.7 33.2 14.6 26 13.8 WNW 26 57 14 31 1002.4 1002.4 0.0
27/01:30pm 35.9 34.9 15.6 30 12.8 WNW 15 22 8 12 1002.3 1002.3 0.0
27/01:00pm 34.7 32.9 16.1 33 11.8 NNW 20 32 11 17 1002.6 1002.6 0.0
27/12:30pm 33.2 30.8 14.3 32 11.6 N 20 28 11 15 1003.4 1003.4 0.0
27/12:00pm 31.7 30.1 16.0 38 9.8 N 19 30 10 16 1004.0 1004.0 0.0
27/11:30am 29.3 30.7 19.6 56 6.3 N 11 15 6 8 1004.5 1004.5 0.0
27/11:00am 28.8 29.8 17.7 51 7.1 N 9 13 5 7 1005.1 1005.1 0.0
27/10:30am 25.6 27.4 18.3 64 4.6 NW 6 7 3 4 1005.6 1005.6 0.0
27/10:00am 22.2 24.9 20.3 89 1.2 NE 6 9 3 5 1006.0 1006.0 0.0
27/09:30am 18.7 20.3 18.2 97 0.3 E 7 9 4 5 1006.4 1006.4 0.0
27/09:00am 17.3 19.7 17.0 98 0.2 CALM 0 0 0 0 1006.9 1006.9 0.0
27/08:30am 16.6 17.6 16.3 98 0.2 NNW 6 7 3 4 1007.3 1007.3 0.0
27/08:00am 16.2 18.2 15.9 98 0.2 CALM 0 0 0 0 1007.4 1007.4 0.0
27/07:30am 15.1 16.7 14.8 98 0.2 CALM 0 0 0 0 1007.4 1007.4 0.0
27/07:00am 14.7 16.0 14.2 97 0.3 CALM 0 0 0 0 1007.5 1007.5 0.0
27/06:46am 14.7 15.7 14.2 97 0.3 NE 2 7 1 4 1007.5 1007.5 0.0
27/06:30am 15.1 15.8 14.6 97 0.3 NNE 4 7 2 4 1007.6 1007.6 0.0
27/06:00am 15.2 16.7 14.7 97 0.3 CALM 0 0 0 0 1008.0 1008.0 0.0
27/05:30am 15.5 15.8 15.0 97 0.3 NNW 7 11 4 6 1008.3 1008.3 0.0
27/05:00am 16.1 16.8 15.6 97 0.3 NNW 6 7 3 4 1008.3 1008.3 0.0
27/04:30am 16.5 17.2 16.0 97 0.3 N 7 9 4 5 1008.5 1008.5 0.0
27/04:00am 16.9 18.3 16.4 97 0.3 N 4 7 2 4 1009.0 1009.0 0.0
27/03:30am 17.1 18.2 16.6 97 0.3 NE 6 6 3 3 1009.5 1009.5 0.0
27/03:00am 17.5 19.5 16.9 96 0.4 NNE 2 6 1 3 1010.0 1010.0 0.0
27/02:30am 17.8 19.1 17.2 96 0.4 NE 6 7 3 4 1010.5 1010.5 0.0
27/02:00am 18.2 19.6 17.4 95 0.5 N 6 7 3 4 1010.8 1010.8 0.0
27/01:30am 18.6 19.5 17.6 94 0.6 N 9 11 5 6 1011.3 1011.3 0.0
27/01:00am 18.8 20.2 17.8 94 0.6 N 7 9 4 5 1011.9 1011.9 0.0
27/12:30am 19.0 20.5 18.0 94 0.6 N 7 9 4 5 1012.5 1012.5 0.0
27/12:00am 19.3 20.9 18.3 94 0.6 N 7 9 4 5 1012.9 1012.9 0.0
 
Date/Time
EDT
Temp
°C
App
Temp
°C
Dew
Point
°C
Rel
Hum
%
Delta-T
°C
Wind Press
QNH
hPa
Press
MSL
hPa
Rain since
9am
mm
Dir  Spd
km/h
Gust
km/h
Spd
kts
Gust
kts
26/11:30pm 19.4 21.1 18.4 94 0.6 NE 7 9 4 5 1013.2 1013.2 0.0
26/11:00pm 19.3 20.5 18.3 94 0.6 ENE 9 13 5 7 1013.8 1013.8 0.0
26/10:30pm 19.2 20.0 18.2 94 0.6 ENE 11 17 6 9 1014.3 1014.3 0.0
26/10:00pm 18.6 18.9 17.1 91 0.9 E 11 19 6 10 1014.5 1014.5 0.0
26/09:30pm 18.6 19.9 17.1 91 0.9 NE 6 7 3 4 1014.5 1014.5 0.0
26/09:00pm 17.9 19.2 16.2 90 1.0 ESE 4 6 2 3 1014.5 1014.5 0.0
26/08:56pm 17.9 19.2 16.2 90 1.0 ESE 4 6 2 3 1014.5 1014.5 0.0
26/08:30pm 18.1 18.5 16.3 89 1.1 E 9 11 5 6 1014.2 1014.2 0.0
26/08:00pm 18.3 18.3 16.3 88 1.2 E 11 13 6 7 1014.1 1014.1 0.0
26/07:30pm 19.1 19.0 16.1 83 1.8 ESE 11 15 6 8 1013.9 1013.9 0.0
26/07:00pm 20.2 19.0 16.2 78 2.4 ESE 17 20 9 11 1013.6 1013.6 0.0
26/06:30pm 21.1 19.7 16.5 75 2.8 SE 19 24 10 13 1013.2 1013.2 0.0
26/06:00pm 21.8 19.7 16.3 71 3.3 ESE 22 28 12 15 1012.9 1012.9 0.0
26/05:30pm 22.1 20.5 16.6 71 3.3 ESE 20 24 11 13 1012.9 1012.9 0.0
26/05:00pm 23.0 20.8 16.8 68 3.8 ESE 24 30 13 16 1012.6 1012.6 0.0
26/04:30pm 23.6 21.9 17.1 67 4.0 SE 22 28 12 15 1012.8 1012.8 0.0
26/04:00pm 23.8 21.7 17.1 66 4.1 ESE 24 30 13 16 1012.9 1012.9 0.0
26/03:30pm 24.9 23.2 17.1 62 4.8 ESE 22 28 12 15 1013.0 1013.0 0.0
26/03:00pm 24.8 23.7 17.8 65 4.4 ESE 20 28 11 15 1013.2 1013.2 0.0
26/02:30pm 24.9 24.0 16.9 61 4.9 ESE 17 26 9 14 1013.4 1013.4 0.0
26/02:00pm 25.5 25.1 17.2 60 5.2 ESE 15 22 8 12 1013.8 1013.8 0.0
26/01:30pm 25.6 24.9 16.5 57 5.6 ENE 15 20 8 11 1014.3 1014.3 0.0
26/01:00pm 25.5 25.3 16.6 58 5.5 ENE 13 19 7 10 1014.9 1014.9 0.0
26/12:30pm 24.6 23.7 15.8 58 5.3 ENE 15 20 8 11 1015.2 1015.2 0.0
26/12:00pm 24.1 25.2 17.1 65 4.3 NE 7 15 4 8 1015.5 1015.5 0.0
26/11:30am 23.4 24.0 16.7 66 4.1 ESE 9 15 5 8 1015.8 1015.8 0.0
26/11:00am 22.5 23.2 16.1 67 3.9 SSE 7 11 4 6 1015.9 1015.9 0.0
26/10:30am 22.8 24.1 17.5 72 3.3 W 7 11 4 6 1015.9 1015.9 0.0
26/10:00am 21.3 21.8 17.5 79 2.3 W 11 15 6 8 1015.9 1015.9 0.0
26/09:30am 20.4 20.4 17.2 82 2.0 W 13 19 7 10 1015.8 1015.8 0.0
26/09:00am 19.3 19.6 16.9 86 1.5 NW 11 15 6 8 1015.5 1015.5 0.0
26/08:30am 18.2 18.6 16.2 88 1.2 NW 9 13 5 7 1015.3 1015.3 0.0
26/08:00am 18.0 18.7 16.2 89 1.1 WNW 7 11 4 6 1015.0 1015.0 0.0
26/07:30am 17.8 17.3 16.0 89 1.1 W 13 19 7 10 1014.7 1014.7 0.0
26/07:00am 17.7 17.1 15.7 88 1.2 WNW 13 17 7 9 1014.4 1014.4 0.0
26/06:30am 17.5 16.8 15.5 88 1.2 W 13 19 7 10 1014.1 1014.1 0.0
26/06:00am 17.3 16.2 15.3 88 1.2 W 15 20 8 11 1013.7 1013.7 0.0
26/05:30am 17.3 16.9 15.3 88 1.2 WNW 11 17 6 9 1013.4 1013.4 0.0
26/05:00am 16.9 16.5 15.2 90 1.0 W 11 15 6 8 1013.3 1013.3 0.0
26/04:30am 16.5 16.4 15.0 91 0.9 W 9 15 5 8 1013.1 1013.1 0.0
26/04:00am 15.7 15.7 14.2 91 0.9 W 7 9 4 5 1013.0 1013.0 0.0
26/03:30am 16.2 16.0 14.7 91 0.9 WSW 9 13 5 7 1013.1 1013.1 0.0
26/03:00am 16.5 16.5 15.2 92 0.8 WNW 9 11 5 6 1013.2 1013.2 0.0
26/02:30am 16.3 16.7 15.2 93 0.6 WNW 7 11 4 6 1012.9 1012.9 0.0
26/02:00am 16.6 16.7 15.6 94 0.6 W 9 11 5 6 1012.9 1012.9 0.0
26/01:30am 15.7 15.5 14.6 93 0.6 NW 9 11 5 6 1012.8 1012.8 0.0
26/01:00am 16.4 16.8 15.3 93 0.6 NW 7 9 4 5 1012.9 1012.9 0.0
26/12:30am 17.0 18.8 15.5 91 0.9 CALM 0 0 0 0 1013.0 1013.0 0.0
26/12:00am 18.0 19.7 16.3 90 1.0 SW 2 6 1 3 1012.9 1012.9 0.0
 
Date/Time
EDT
Temp
°C
App
Temp
°C
Dew
Point
°C
Rel
Hum
%
Delta-T
°C
Wind Press
QNH
hPa
Press
MSL
hPa
Rain since
9am
mm
Dir  Spd
km/h
Gust
km/h
Spd
kts
Gust
kts
25/11:30pm 18.1 20.3 16.4 90 1.0 CALM 0 0 0 0 1013.2 1013.2 0.0
25/11:00pm 17.5 19.3 15.5 88 1.2 CALM 0 4 0 2 1013.2 1013.2 0.0
25/10:30pm 18.4 19.3 16.2 87 1.3 SE 6 7 3 4 1013.1 1013.1 0.0
25/10:00pm 18.5 19.9 16.5 88 1.2 SE 4 6 2 3 1013.2 1013.2 0.0
25/09:30pm 17.8 18.4 15.4 86 1.4 ESE 6 7 3 4 1013.0 1013.0 0.0
25/09:00pm 18.7 20.4 16.1 85 1.5 ESE 2 6 1 3 1012.9 1012.9 0.0
25/08:30pm 19.8 19.7 16.1 79 2.2 E 11 13 6 7 1012.3 1012.3 0.0
25/08:00pm 20.2 20.4 15.8 76 2.6 E 9 13 5 7 1012.2 1012.2 0.0
25/07:30pm 20.7 20.0 15.5 72 3.1 ESE 13 17 7 9 1012.0 1012.0 0.0
25/07:00pm 22.5 20.5 15.6 65 4.1 E 20 24 11 13 1011.5 1011.5 0.0

Other Formats:

Comma delimited format used in spreadsheet applications
http://www.bom.gov.au/fwo/IDV60801/IDV60801.94907.axf

JavaScript Object Notation format (JSON) in row-major order
http://www.bom.gov.au/fwo/IDV60801/IDV60801.94907.json